createdAt,value
2022-09-24T00:00:00.335Z,18.1
2022-09-24T00:01:00.501Z,18.1
2022-09-24T00:02:00.358Z,18.0
2022-09-24T00:03:00.543Z,18.0
2022-09-24T00:04:00.579Z,18.0
2022-09-24T00:05:00.312Z,18.0
2022-09-24T00:06:00.360Z,18.0
2022-09-24T00:07:00.509Z,18.1
2022-09-24T00:08:00.315Z,18.2
2022-09-24T00:09:00.332Z,18.3
2022-09-24T00:10:00.335Z,18.3
2022-09-24T00:11:00.294Z,18.4
2022-09-24T00:12:00.307Z,18.5
2022-09-24T00:13:00.401Z,18.4
2022-09-24T00:14:00.308Z,18.3
2022-09-24T00:15:00.308Z,18.2
2022-09-24T00:16:00.338Z,18.1
2022-09-24T00:17:00.347Z,18.1
2022-09-24T00:18:00.281Z,18.0
2022-09-24T00:19:00.536Z,18.0
2022-09-24T00:20:00.311Z,17.9
2022-09-24T00:21:00.370Z,17.9
2022-09-24T00:22:00.298Z,17.8
2022-09-24T00:23:00.309Z,17.8
2022-09-24T00:24:00.341Z,17.8
2022-09-24T00:25:00.464Z,17.8
2022-09-24T00:26:00.540Z,17.8
2022-09-24T00:27:00.286Z,17.9
2022-09-24T00:28:00.308Z,17.9
2022-09-24T00:29:00.298Z,17.9
2022-09-24T00:30:00.311Z,17.9
2022-09-24T00:31:00.478Z,17.9
2022-09-24T00:32:00.303Z,17.9
2022-09-24T00:33:00.292Z,17.9
2022-09-24T00:34:00.361Z,17.9
2022-09-24T00:35:00.289Z,17.9
2022-09-24T00:36:00.305Z,17.9
2022-09-24T00:37:00.650Z,17.9
2022-09-24T00:38:00.297Z,17.9
2022-09-24T00:39:00.288Z,17.9
2022-09-24T00:40:00.315Z,17.8
2022-09-24T00:41:00.325Z,17.7
2022-09-24T00:42:00.343Z,17.7
2022-09-24T00:43:00.551Z,17.7
2022-09-24T00:44:00.347Z,17.7
2022-09-24T00:45:00.374Z,17.7
2022-09-24T00:46:00.323Z,17.7
2022-09-24T00:47:00.473Z,17.7
2022-09-24T00:48:00.304Z,17.7
2022-09-24T00:49:00.440Z,17.7
2022-09-24T00:50:00.296Z,17.7
2022-09-24T00:51:00.310Z,17.7
2022-09-24T00:52:00.296Z,17.6
2022-09-24T00:53:00.295Z,17.6
2022-09-24T00:54:00.320Z,17.6
2022-09-24T00:55:00.462Z,17.6
2022-09-24T00:56:00.315Z,17.6
2022-09-24T00:57:00.364Z,17.6
2022-09-24T00:58:00.285Z,17.7
2022-09-24T00:59:00.300Z,17.7
2022-09-24T01:00:00.304Z,17.7
2022-09-24T01:01:00.474Z,17.7
2022-09-24T01:02:00.396Z,17.7
2022-09-24T01:03:00.293Z,17.7
2022-09-24T01:04:00.309Z,17.7
2022-09-24T01:05:00.299Z,17.7
2022-09-24T01:06:00.313Z,17.8
2022-09-24T01:07:00.526Z,17.8
2022-09-24T01:08:00.384Z,17.7
2022-09-24T01:09:00.375Z,17.7
2022-09-24T01:10:00.363Z,17.7
2022-09-24T01:11:00.333Z,17.7
2022-09-24T01:12:00.492Z,17.7
2022-09-24T01:13:00.501Z,17.7
2022-09-24T01:14:00.304Z,17.6
2022-09-24T01:15:00.310Z,17.6
2022-09-24T01:16:00.388Z,17.5
2022-09-24T01:17:00.318Z,17.5
2022-09-24T01:18:00.289Z,17.5
2022-09-24T01:19:00.569Z,17.6
2022-09-24T01:20:00.279Z,17.7
2022-09-24T01:21:00.269Z,17.7
2022-09-24T01:22:00.302Z,17.7
2022-09-24T01:23:00.310Z,17.6
2022-09-24T01:24:00.311Z,17.6
2022-09-24T01:25:00.458Z,17.5
2022-09-24T01:26:00.305Z,17.5
2022-09-24T01:27:00.302Z,17.4
2022-09-24T01:28:00.596Z,17.4
2022-09-24T01:29:00.291Z,17.4
2022-09-24T01:30:00.301Z,17.4
2022-09-24T01:31:00.524Z,17.4
2022-09-24T01:32:00.412Z,17.3
2022-09-24T01:33:00.290Z,17.3
2022-09-24T01:34:00.283Z,17.3
2022-09-24T01:35:00.310Z,17.3
2022-09-24T01:36:00.354Z,17.3
2022-09-24T01:37:00.476Z,17.4
2022-09-24T01:38:00.298Z,17.4
2022-09-24T01:39:00.310Z,17.4
2022-09-24T01:40:00.314Z,17.4
2022-09-24T01:41:00.301Z,17.3
2022-09-24T01:42:00.289Z,17.3
2022-09-24T01:43:00.491Z,17.3
2022-09-24T01:44:00.452Z,17.3
2022-09-24T01:45:00.292Z,17.3
2022-09-24T01:46:00.281Z,17.3
2022-09-24T01:47:00.377Z,17.4
2022-09-24T01:48:00.313Z,17.5
2022-09-24T01:49:00.455Z,17.5
2022-09-24T01:50:00.292Z,17.5
2022-09-24T01:51:00.318Z,17.5
2022-09-24T01:52:00.343Z,17.5
2022-09-24T01:53:00.307Z,17.6
2022-09-24T01:54:00.394Z,17.6
2022-09-24T01:55:00.499Z,17.6
2022-09-24T01:56:00.327Z,17.6
2022-09-24T01:57:00.309Z,17.6
2022-09-24T01:58:00.410Z,17.6
2022-09-24T01:59:00.351Z,17.5
2022-09-24T02:00:00.425Z,17.5
2022-09-24T02:01:00.532Z,17.5
2022-09-24T02:02:00.364Z,17.4
2022-09-24T02:03:00.301Z,17.4
2022-09-24T02:04:00.305Z,17.4
2022-09-24T02:05:00.308Z,17.3
2022-09-24T02:06:00.293Z,17.3
2022-09-24T02:07:00.444Z,17.2
2022-09-24T02:08:00.314Z,17.2
2022-09-24T02:09:00.307Z,17.1
2022-09-24T02:10:00.313Z,17.1
2022-09-24T02:11:00.286Z,17.1
2022-09-24T02:12:00.285Z,17.1
2022-09-24T02:13:00.534Z,17.1
2022-09-24T02:14:00.323Z,17.1
2022-09-24T02:15:00.308Z,17.1
2022-09-24T02:16:00.351Z,17.1
2022-09-24T02:17:00.285Z,17.1
2022-09-24T02:18:00.277Z,17.1
2022-09-24T02:19:00.447Z,17.1
2022-09-24T02:20:00.277Z,17.2
2022-09-24T02:21:00.294Z,17.2
2022-09-24T02:22:00.346Z,17.2
2022-09-24T02:23:00.277Z,17.3
2022-09-24T02:24:00.355Z,17.3
2022-09-24T02:25:00.699Z,17.3
2022-09-24T02:26:00.303Z,17.3
2022-09-24T02:27:00.336Z,17.3
2022-09-24T02:28:00.324Z,17.3
2022-09-24T02:29:00.328Z,17.3
2022-09-24T02:30:00.308Z,17.3
2022-09-24T02:31:00.453Z,17.3
2022-09-24T02:32:00.286Z,17.3
2022-09-24T02:33:00.311Z,17.2
2022-09-24T02:34:00.405Z,17.2
2022-09-24T02:35:00.302Z,17.2
2022-09-24T02:36:00.286Z,17.2
2022-09-24T02:37:00.429Z,17.2
2022-09-24T02:38:04.101Z,17.2
2022-09-24T02:39:00.290Z,17.2
2022-09-24T02:40:00.304Z,17.2
2022-09-24T02:41:00.464Z,17.2
2022-09-24T02:42:00.318Z,17.1
2022-09-24T02:43:00.439Z,17.1
2022-09-24T02:44:00.302Z,17.1
2022-09-24T02:45:00.443Z,17.1
2022-09-24T02:46:00.293Z,17.1
2022-09-24T02:47:00.379Z,17.1
2022-09-24T02:48:00.289Z,17.1
2022-09-24T02:49:00.460Z,17.1
2022-09-24T02:50:00.377Z,17.1
2022-09-24T02:51:00.310Z,17.1
2022-09-24T02:52:00.335Z,17.1
2022-09-24T02:53:00.375Z,17.1
2022-09-24T02:54:00.315Z,17.0
2022-09-24T02:55:00.449Z,17.0
2022-09-24T02:56:00.303Z,17.0
2022-09-24T02:57:00.302Z,17.1
2022-09-24T02:58:00.284Z,17.1
2022-09-24T02:59:00.322Z,17.1
2022-09-24T03:00:00.515Z,17.1
2022-09-24T03:01:00.510Z,17.1
2022-09-24T03:02:00.478Z,17.1
2022-09-24T03:03:00.489Z,17.2
2022-09-24T03:04:00.496Z,17.2
2022-09-24T03:05:00.299Z,17.2
2022-09-24T03:06:00.322Z,17.2
2022-09-24T03:07:00.432Z,17.2
2022-09-24T03:08:00.307Z,17.3
2022-09-24T03:09:00.340Z,17.3
2022-09-24T03:10:00.386Z,17.4
2022-09-24T03:11:00.303Z,17.4
2022-09-24T03:12:00.323Z,17.4
2022-09-24T03:13:00.562Z,17.5
2022-09-24T03:14:00.327Z,17.5
2022-09-24T03:15:00.381Z,17.5
2022-09-24T03:16:00.528Z,17.6
2022-09-24T03:17:00.285Z,17.7
2022-09-24T03:18:00.306Z,17.8
2022-09-24T03:19:00.606Z,17.9
2022-09-24T03:20:00.296Z,17.9
2022-09-24T03:21:00.307Z,17.9
2022-09-24T03:22:00.331Z,17.9
2022-09-24T03:23:00.300Z,17.9
2022-09-24T03:24:00.287Z,18.0
2022-09-24T03:25:00.610Z,18.1
2022-09-24T03:26:00.312Z,18.1
2022-09-24T03:27:00.301Z,18.1
2022-09-24T03:28:00.297Z,18.1
2022-09-24T03:29:00.307Z,18.1
2022-09-24T03:30:00.335Z,18.1
2022-09-24T03:31:00.676Z,18.1
2022-09-24T03:32:00.282Z,18.1
2022-09-24T03:33:00.321Z,18.2
2022-09-24T03:34:00.303Z,18.2
2022-09-24T03:35:00.297Z,18.2
2022-09-24T03:36:00.325Z,18.2
2022-09-24T03:37:00.474Z,18.2
2022-09-24T03:38:00.275Z,18.2
2022-09-24T03:39:00.304Z,18.2
2022-09-24T03:40:00.346Z,18.2
2022-09-24T03:41:00.311Z,18.2
2022-09-24T03:42:00.312Z,18.1
2022-09-24T03:43:00.482Z,18.1
2022-09-24T03:44:00.308Z,18.1
2022-09-24T03:45:00.308Z,18.1
2022-09-24T03:46:00.380Z,18.1
2022-09-24T03:47:00.770Z,18.2
2022-09-24T03:48:00.314Z,18.3
2022-09-24T03:49:00.541Z,18.3
2022-09-24T03:50:00.322Z,18.4
2022-09-24T03:51:00.278Z,18.4
2022-09-24T03:52:00.304Z,18.4
2022-09-24T03:53:00.284Z,18.4
2022-09-24T03:54:00.293Z,18.5
2022-09-24T03:55:00.440Z,18.5
2022-09-24T03:56:00.281Z,18.5
2022-09-24T03:57:00.326Z,18.5
2022-09-24T03:58:00.285Z,18.6
2022-09-24T03:59:00.303Z,18.6
2022-09-24T04:00:00.347Z,18.7
2022-09-24T04:01:00.442Z,18.7
2022-09-24T04:02:00.399Z,18.8
2022-09-24T04:03:00.412Z,18.8
2022-09-24T04:04:00.410Z,18.8
2022-09-24T04:05:00.312Z,18.9
2022-09-24T04:06:00.373Z,18.9
2022-09-24T04:07:00.448Z,19.0
2022-09-24T04:08:00.279Z,19.1
2022-09-24T04:09:00.300Z,19.2
2022-09-24T04:10:00.287Z,19.2
2022-09-24T04:11:00.303Z,19.2
2022-09-24T04:12:00.302Z,19.3
2022-09-24T04:13:00.490Z,19.3
2022-09-24T04:14:00.295Z,19.3
2022-09-24T04:15:00.335Z,19.4
2022-09-24T04:16:00.384Z,19.6
2022-09-24T04:17:00.327Z,19.6
2022-09-24T04:18:00.322Z,19.6
2022-09-24T04:19:00.465Z,19.7
2022-09-24T04:20:00.299Z,19.7
2022-09-24T04:21:00.298Z,19.7
2022-09-24T04:22:00.290Z,19.8
2022-09-24T04:23:00.283Z,19.8
2022-09-24T04:24:00.285Z,19.8
2022-09-24T04:25:00.460Z,19.9
2022-09-24T04:26:00.354Z,19.9
2022-09-24T04:27:00.361Z,20.0
2022-09-24T04:28:00.301Z,20.0
2022-09-24T04:29:00.297Z,20.1
2022-09-24T04:30:00.266Z,20.1
2022-09-24T04:31:00.557Z,20.1
2022-09-24T04:32:00.317Z,20.2
2022-09-24T04:33:00.381Z,20.2
2022-09-24T04:34:00.271Z,20.3
2022-09-24T04:35:05.383Z,20.4
2022-09-24T04:36:00.278Z,20.4
2022-09-24T04:37:00.440Z,20.5
2022-09-24T04:38:00.349Z,20.6
2022-09-24T04:39:00.300Z,20.7
2022-09-24T04:40:00.296Z,20.8
2022-09-24T04:41:00.306Z,20.9
2022-09-24T04:42:00.315Z,20.9
2022-09-24T04:43:00.601Z,21.0
2022-09-24T04:44:00.294Z,21.0
2022-09-24T04:45:00.316Z,21.0
2022-09-24T04:46:00.433Z,21.0
2022-09-24T04:47:00.394Z,21.0
2022-09-24T04:48:00.379Z,21.0
2022-09-24T04:49:00.526Z,21.0
2022-09-24T04:50:00.339Z,21.1
2022-09-24T04:51:00.304Z,21.2
2022-09-24T04:52:00.297Z,21.4
2022-09-24T04:53:00.287Z,21.4
2022-09-24T04:54:00.302Z,21.5
2022-09-24T04:55:00.598Z,21.6
2022-09-24T04:56:00.324Z,21.8
2022-09-24T04:57:00.284Z,21.9
2022-09-24T04:58:00.298Z,22.0
2022-09-24T04:59:00.314Z,22.1
2022-09-24T05:00:00.324Z,23.4
2022-09-24T05:01:00.428Z,26.5
2022-09-24T05:02:00.914Z,29.1
2022-09-24T05:03:00.356Z,30.8
2022-09-24T05:04:00.422Z,32.3
2022-09-24T05:05:00.299Z,33.0
2022-09-24T05:06:00.305Z,32.1
2022-09-24T05:07:00.451Z,30.5
2022-09-24T05:08:00.321Z,29.5
2022-09-24T05:09:00.342Z,28.9
2022-09-24T05:10:00.337Z,30.2
2022-09-24T05:11:00.348Z,32.9
2022-09-24T05:12:00.394Z,34.6
2022-09-24T05:13:00.471Z,35.6
2022-09-24T05:14:00.295Z,36.6
2022-09-24T05:15:00.316Z,37.3
2022-09-24T05:16:00.371Z,37.7
2022-09-24T05:17:00.319Z,38.1
2022-09-24T05:18:00.309Z,38.4
2022-09-24T05:19:00.657Z,38.5
2022-09-24T05:20:00.470Z,38.7
2022-09-24T05:21:00.287Z,38.9
2022-09-24T05:22:00.299Z,39.4
2022-09-24T05:23:00.321Z,39.8
2022-09-24T05:24:00.309Z,39.9
2022-09-24T05:25:00.454Z,40.1
2022-09-24T05:26:00.293Z,40.5
2022-09-24T05:27:00.321Z,40.7
2022-09-24T05:28:00.291Z,41.1
2022-09-24T05:29:00.321Z,41.4
2022-09-24T05:30:00.302Z,41.5
2022-09-24T05:31:00.501Z,41.4
2022-09-24T05:32:00.419Z,41.4
2022-09-24T05:33:00.329Z,41.2
2022-09-24T05:34:00.283Z,41.0
2022-09-24T05:35:00.443Z,40.9
2022-09-24T05:36:00.310Z,41.0
2022-09-24T05:37:00.473Z,41.2
2022-09-24T05:38:00.315Z,41.5
2022-09-24T05:39:00.300Z,41.8
2022-09-24T05:40:00.307Z,41.8
2022-09-24T05:41:00.383Z,41.5
2022-09-24T05:42:00.291Z,41.3
2022-09-24T05:43:00.423Z,41.5
2022-09-24T05:44:00.301Z,41.9
2022-09-24T05:45:00.293Z,42.0
2022-09-24T05:46:00.338Z,41.9
2022-09-24T05:47:00.370Z,41.9
2022-09-24T05:48:00.460Z,42.1
2022-09-24T05:49:00.486Z,41.9
2022-09-24T05:50:00.394Z,41.9
2022-09-24T05:51:00.293Z,42.2
2022-09-24T05:52:00.332Z,42.7
2022-09-24T05:53:00.284Z,43.0
2022-09-24T05:54:00.300Z,43.2
2022-09-24T05:55:00.477Z,43.4
2022-09-24T05:56:00.300Z,43.1
2022-09-24T05:57:00.301Z,42.8
2022-09-24T05:58:00.289Z,42.7
2022-09-24T05:59:00.305Z,42.7
2022-09-24T06:00:00.296Z,42.7
2022-09-24T06:01:00.503Z,42.5
2022-09-24T06:02:00.444Z,42.4
2022-09-24T06:03:00.394Z,42.7
2022-09-24T06:04:02.551Z,43.0
2022-09-24T06:05:00.460Z,43.2
2022-09-24T06:06:00.362Z,42.9
2022-09-24T06:07:00.380Z,42.2
2022-09-24T06:08:00.312Z,40.9
2022-09-24T06:09:00.315Z,40.8
2022-09-24T06:10:00.294Z,41.4
2022-09-24T06:11:00.357Z,41.4
2022-09-24T06:12:00.286Z,41.5
2022-09-24T06:13:00.495Z,40.9
2022-09-24T06:14:00.403Z,41.0
2022-09-24T06:15:00.294Z,40.3
2022-09-24T06:16:00.353Z,40.6
2022-09-24T06:17:00.313Z,40.2
2022-09-24T06:18:00.305Z,40.8
2022-09-24T06:19:00.458Z,41.2
2022-09-24T06:20:00.298Z,42.0
2022-09-24T06:21:00.333Z,42.6
2022-09-24T06:22:00.367Z,43.0
2022-09-24T06:23:00.300Z,43.4
2022-09-24T06:24:00.305Z,43.4
2022-09-24T06:25:00.411Z,43.6
2022-09-24T06:26:00.288Z,44.2
2022-09-24T06:27:00.327Z,44.5
2022-09-24T06:28:00.767Z,44.7
2022-09-24T06:29:04.676Z,45.0
2022-09-24T06:30:00.312Z,45.6
2022-09-24T06:31:00.595Z,45.8
2022-09-24T06:32:00.299Z,45.7
2022-09-24T06:33:00.306Z,45.6
2022-09-24T06:34:00.299Z,43.5
2022-09-24T06:35:00.315Z,43.9
2022-09-24T06:36:00.304Z,43.4
2022-09-24T06:37:00.510Z,44.3
2022-09-24T06:38:00.305Z,43.7
2022-09-24T06:39:00.309Z,42.5
2022-09-24T06:40:00.308Z,42.8
2022-09-24T06:41:00.377Z,44.0
2022-09-24T06:42:00.330Z,44.0
2022-09-24T06:43:00.524Z,44.1
2022-09-24T06:44:00.299Z,43.1
2022-09-24T06:45:00.283Z,44.0
2022-09-24T06:46:00.308Z,44.6
2022-09-24T06:47:00.324Z,44.4
2022-09-24T06:48:00.331Z,44.5
2022-09-24T06:49:00.425Z,44.1
2022-09-24T06:50:00.303Z,43.7
2022-09-24T06:51:00.303Z,44.1
2022-09-24T06:52:00.443Z,43.9
2022-09-24T06:53:00.273Z,44.7
2022-09-24T06:54:00.325Z,44.4
2022-09-24T06:55:00.479Z,44.3
2022-09-24T06:56:00.310Z,44.3
2022-09-24T06:57:00.312Z,42.5
2022-09-24T06:58:00.280Z,41.4
2022-09-24T06:59:00.315Z,42.7
2022-09-24T07:00:00.312Z,43.5
2022-09-24T07:01:00.497Z,43.4
2022-09-24T07:02:00.398Z,44.4
2022-09-24T07:03:00.295Z,44.0
2022-09-24T07:04:00.344Z,44.6
2022-09-24T07:05:00.318Z,44.6
2022-09-24T07:06:00.313Z,43.3
2022-09-24T07:07:00.440Z,43.9
2022-09-24T07:08:00.327Z,42.7
2022-09-24T07:09:00.283Z,41.4
2022-09-24T07:10:00.372Z,42.3
2022-09-24T07:11:00.352Z,42.2
2022-09-24T07:12:00.362Z,42.1
2022-09-24T07:13:00.446Z,43.3
2022-09-24T07:14:00.302Z,43.4
2022-09-24T07:15:00.291Z,42.3
2022-09-24T07:16:00.370Z,41.7
2022-09-24T07:17:00.382Z,41.7
2022-09-24T07:18:00.301Z,41.2
2022-09-24T07:19:00.440Z,40.7
2022-09-24T07:20:00.338Z,40.5
2022-09-24T07:21:00.327Z,39.2
2022-09-24T07:22:00.512Z,37.8
2022-09-24T07:23:00.295Z,37.5
2022-09-24T07:24:00.328Z,38.1
2022-09-24T07:25:00.596Z,39.9
2022-09-24T07:26:00.303Z,40.0
2022-09-24T07:27:00.295Z,40.3
2022-09-24T07:28:00.305Z,40.5
2022-09-24T07:29:00.290Z,40.0
2022-09-24T07:30:00.297Z,40.0
2022-09-24T07:31:00.606Z,40.0
2022-09-24T07:32:00.323Z,40.5
2022-09-24T07:33:00.341Z,40.1
2022-09-24T07:34:00.492Z,39.9
2022-09-24T07:35:00.333Z,39.9
2022-09-24T07:36:00.436Z,40.4
2022-09-24T07:37:00.638Z,39.2
2022-09-24T07:38:00.620Z,39.4
2022-09-24T07:39:00.286Z,39.9
2022-09-24T07:40:00.312Z,39.3
2022-09-24T07:41:00.433Z,39.5
2022-09-24T07:42:00.295Z,39.5
2022-09-24T07:43:00.487Z,40.0
2022-09-24T07:44:00.419Z,39.8
2022-09-24T07:45:00.294Z,38.4
2022-09-24T07:46:00.292Z,38.6
2022-09-24T07:47:00.364Z,39.1
2022-09-24T07:48:00.300Z,39.3
2022-09-24T07:49:00.454Z,39.0
2022-09-24T07:50:00.290Z,39.4
2022-09-24T07:51:00.307Z,40.6
2022-09-24T07:52:00.277Z,40.5
2022-09-24T07:53:00.419Z,40.5
2022-09-24T07:54:00.299Z,41.5
2022-09-24T07:55:00.416Z,40.6
2022-09-24T07:56:00.338Z,39.9
2022-09-24T07:57:00.396Z,37.9
2022-09-24T07:58:00.367Z,37.9
2022-09-24T07:59:00.333Z,37.9
2022-09-24T08:00:00.348Z,38.7
2022-09-24T08:01:00.476Z,39.5
2022-09-24T08:02:00.521Z,39.0
2022-09-24T08:03:00.309Z,37.9
2022-09-24T08:04:00.367Z,39.5
2022-09-24T08:05:00.310Z,37.9
2022-09-24T08:06:00.312Z,39.8
2022-09-24T08:07:00.415Z,37.7
2022-09-24T08:08:00.378Z,39.9
2022-09-24T08:09:00.312Z,38.4
2022-09-24T08:10:00.294Z,36.5
2022-09-24T08:11:00.295Z,35.9
2022-09-24T08:12:00.306Z,37.0
2022-09-24T08:13:00.516Z,38.6
2022-09-24T08:14:00.292Z,37.2
2022-09-24T08:15:00.273Z,36.0
2022-09-24T08:16:00.377Z,35.6
2022-09-24T08:17:00.300Z,36.3
2022-09-24T08:18:00.367Z,36.5
2022-09-24T08:19:00.490Z,34.6
2022-09-24T08:20:00.288Z,35.1
2022-09-24T08:21:00.316Z,38.1
2022-09-24T08:22:00.318Z,36.2
2022-09-24T08:23:00.497Z,35.3
2022-09-24T08:24:00.430Z,35.0
2022-09-24T08:25:00.430Z,35.2
2022-09-24T08:26:00.311Z,35.4
2022-09-24T08:27:00.392Z,35.6
2022-09-24T08:28:00.294Z,35.6
2022-09-24T08:29:00.313Z,35.2
2022-09-24T08:30:00.313Z,36.0
2022-09-24T08:31:00.619Z,38.0
2022-09-24T08:32:00.307Z,37.1
2022-09-24T08:33:00.306Z,35.9
2022-09-24T08:34:00.294Z,36.3
2022-09-24T08:35:00.280Z,36.6
2022-09-24T08:36:00.281Z,37.5
2022-09-24T08:37:00.529Z,37.1
2022-09-24T08:38:00.317Z,37.2
2022-09-24T08:39:00.435Z,36.7
2022-09-24T08:40:00.296Z,35.4
2022-09-24T08:41:00.399Z,35.1
2022-09-24T08:42:00.314Z,34.2
2022-09-24T08:43:04.280Z,33.9
2022-09-24T08:44:00.312Z,34.1
2022-09-24T08:45:00.325Z,34.3
2022-09-24T08:46:00.367Z,34.3
2022-09-24T08:47:00.390Z,34.2
2022-09-24T08:48:00.382Z,34.0
2022-09-24T08:49:00.435Z,33.8
2022-09-24T08:50:00.307Z,34.1
2022-09-24T08:51:00.316Z,33.2
2022-09-24T08:52:00.298Z,32.9
2022-09-24T08:53:00.299Z,32.4
2022-09-24T08:54:00.449Z,31.9
2022-09-24T08:55:00.440Z,31.9
2022-09-24T08:56:00.297Z,31.7
2022-09-24T08:57:00.400Z,31.6
2022-09-24T08:58:00.320Z,31.5
2022-09-24T08:59:00.309Z,31.5
2022-09-24T09:00:00.294Z,31.6
2022-09-24T09:01:00.422Z,31.6
2022-09-24T09:02:00.425Z,31.5
2022-09-24T09:03:00.414Z,31.5
2022-09-24T09:04:00.313Z,32.2
2022-09-24T09:05:00.320Z,31.9
2022-09-24T09:06:00.332Z,31.5
2022-09-24T09:07:00.573Z,30.9
2022-09-24T09:08:00.346Z,30.5
2022-09-24T09:09:07.319Z,30.5
2022-09-24T09:10:00.348Z,30.6
2022-09-24T09:11:00.389Z,30.8
2022-09-24T09:12:00.301Z,31.0
2022-09-24T09:13:00.439Z,31.1
2022-09-24T09:14:00.317Z,31.3
2022-09-24T09:15:00.352Z,31.4
2022-09-24T09:16:00.791Z,31.7
2022-09-24T09:17:00.400Z,31.8
2022-09-24T09:18:00.367Z,31.9
2022-09-24T09:19:00.566Z,31.9
2022-09-24T09:20:00.328Z,32.0
2022-09-24T09:21:00.308Z,32.1
2022-09-24T09:22:00.391Z,32.2
2022-09-24T09:23:00.331Z,31.8
2022-09-24T09:24:00.542Z,31.7
2022-09-24T09:25:04.035Z,32.1
2022-09-24T09:26:00.334Z,32.0
2022-09-24T09:27:00.383Z,32.0
2022-09-24T09:28:00.314Z,31.9
2022-09-24T09:29:00.375Z,31.9
2022-09-24T09:30:00.370Z,32.1
2022-09-24T09:31:00.522Z,32.1
2022-09-24T09:32:00.355Z,31.7
2022-09-24T09:33:00.339Z,31.6
2022-09-24T09:34:00.382Z,31.6
2022-09-24T09:35:00.303Z,31.5
2022-09-24T09:36:00.315Z,31.3
2022-09-24T09:37:00.534Z,31.1
2022-09-24T09:38:00.386Z,30.8
2022-09-24T09:39:00.306Z,30.6
2022-09-24T09:40:00.526Z,30.5
2022-09-24T09:41:00.894Z,30.4
2022-09-24T09:42:00.374Z,30.3
2022-09-24T09:43:00.490Z,30.3
2022-09-24T09:44:00.325Z,30.3
2022-09-24T09:45:00.343Z,30.1
2022-09-24T09:46:00.431Z,30.1
2022-09-24T09:47:00.447Z,30.0
2022-09-24T09:48:00.368Z,30.0
2022-09-24T09:49:00.421Z,30.1
2022-09-24T09:50:00.374Z,30.1
2022-09-24T09:51:00.333Z,30.0
2022-09-24T09:52:00.390Z,30.0
2022-09-24T09:53:00.429Z,29.8
2022-09-24T09:54:00.448Z,29.7
2022-09-24T09:55:00.648Z,29.6
2022-09-24T09:56:00.369Z,29.4
2022-09-24T09:57:00.440Z,29.1
2022-09-24T09:58:00.490Z,29.0
2022-09-24T09:59:00.421Z,28.9
2022-09-24T10:00:00.330Z,28.9
2022-09-24T10:01:00.392Z,28.9
2022-09-24T10:02:00.445Z,29.0
2022-09-24T10:03:00.451Z,29.0
2022-09-24T10:04:00.330Z,29.1
2022-09-24T10:05:00.428Z,29.1
2022-09-24T10:06:00.380Z,29.0
2022-09-24T10:07:00.414Z,28.9
2022-09-24T10:08:00.326Z,28.6
2022-09-24T10:09:00.285Z,28.6
2022-09-24T10:10:00.512Z,28.7
2022-09-24T10:11:00.286Z,28.7
2022-09-24T10:12:00.276Z,28.8
2022-09-24T10:13:00.508Z,28.8
2022-09-24T10:14:00.290Z,28.7
2022-09-24T10:15:00.277Z,28.6
2022-09-24T10:16:00.436Z,28.5
2022-09-24T10:17:00.276Z,28.4
2022-09-24T10:18:00.298Z,28.4
2022-09-24T10:19:00.457Z,28.4
2022-09-24T10:20:00.932Z,28.3
2022-09-24T10:21:00.334Z,28.3
2022-09-24T10:22:00.418Z,28.2
2022-09-24T10:23:00.279Z,28.1
2022-09-24T10:24:00.432Z,28.0
2022-09-24T10:25:00.521Z,27.9
2022-09-24T10:26:00.341Z,27.9
2022-09-24T10:27:00.288Z,27.9
2022-09-24T10:28:00.294Z,27.9
2022-09-24T10:29:00.294Z,27.8
2022-09-24T10:30:00.290Z,27.8
2022-09-24T10:31:00.522Z,27.6
2022-09-24T10:32:00.327Z,27.5
2022-09-24T10:33:00.298Z,27.4
2022-09-24T10:34:00.436Z,27.4
2022-09-24T10:35:00.328Z,27.3
2022-09-24T10:36:00.332Z,27.3
2022-09-24T10:37:00.513Z,27.2
2022-09-24T10:38:00.368Z,27.2
2022-09-24T10:39:00.373Z,27.1
2022-09-24T10:40:00.485Z,27.0
2022-09-24T10:41:00.425Z,27.0
2022-09-24T10:42:00.292Z,27.0
2022-09-24T10:43:00.502Z,27.0
2022-09-24T10:44:00.331Z,27.0
2022-09-24T10:45:00.395Z,27.0
2022-09-24T10:46:00.308Z,27.0
2022-09-24T10:47:00.393Z,27.0
2022-09-24T10:48:00.349Z,27.0
2022-09-24T10:49:00.462Z,27.0
2022-09-24T10:50:00.289Z,27.0
2022-09-24T10:51:00.555Z,27.1
2022-09-24T10:52:00.574Z,27.1
2022-09-24T10:53:00.494Z,27.1
2022-09-24T10:54:00.508Z,27.1
2022-09-24T10:55:00.613Z,27.1
2022-09-24T10:56:00.306Z,26.9
2022-09-24T10:57:00.339Z,26.9
2022-09-24T10:58:00.954Z,26.9
2022-09-24T10:59:00.327Z,27.0
2022-09-24T11:00:01.259Z,26.9
2022-09-24T11:01:00.708Z,26.9
2022-09-24T11:02:00.650Z,26.9
2022-09-24T11:03:00.613Z,26.8
2022-09-24T11:04:00.335Z,26.8
2022-09-24T11:05:00.753Z,26.7
2022-09-24T11:06:00.409Z,26.7
2022-09-24T11:07:00.577Z,26.6
2022-09-24T11:08:00.381Z,26.5
2022-09-24T11:09:00.368Z,26.5
2022-09-24T11:10:00.440Z,26.4
2022-09-24T11:11:00.292Z,26.3
2022-09-24T11:12:00.299Z,26.3
2022-09-24T11:13:00.538Z,26.3
2022-09-24T11:14:00.785Z,26.3
2022-09-24T11:15:00.351Z,26.3
2022-09-24T11:16:00.358Z,26.3
2022-09-24T11:17:00.302Z,26.3
2022-09-24T11:18:00.291Z,26.3
2022-09-24T11:19:00.473Z,26.4
2022-09-24T11:20:00.362Z,26.5
2022-09-24T11:21:00.442Z,26.4
2022-09-24T11:22:00.362Z,26.4
2022-09-24T11:23:00.419Z,26.4
2022-09-24T11:24:00.323Z,26.4
2022-09-24T11:25:00.639Z,26.4
2022-09-24T11:26:00.345Z,26.5
2022-09-24T11:27:00.475Z,26.5
2022-09-24T11:28:00.323Z,26.6
2022-09-24T11:29:00.319Z,26.6
2022-09-24T11:30:00.410Z,26.6
2022-09-24T11:31:00.797Z,26.6
2022-09-24T11:32:00.300Z,26.6
2022-09-24T11:33:00.349Z,26.6
2022-09-24T11:34:00.327Z,26.7
2022-09-24T11:35:00.345Z,26.7
2022-09-24T11:36:00.416Z,26.7
2022-09-24T11:37:00.464Z,26.7
2022-09-24T11:38:00.336Z,26.8
2022-09-24T11:39:00.344Z,26.8
2022-09-24T11:40:00.381Z,26.8
2022-09-24T11:41:00.615Z,26.8
2022-09-24T11:42:00.367Z,26.8
2022-09-24T11:43:00.552Z,26.8
2022-09-24T11:44:00.395Z,26.8
2022-09-24T11:45:00.322Z,26.8
2022-09-24T11:46:00.480Z,26.8
2022-09-24T11:47:00.394Z,26.7
2022-09-24T11:48:00.306Z,26.7
2022-09-24T11:49:00.470Z,26.7
2022-09-24T11:50:00.272Z,26.6
2022-09-24T11:51:00.326Z,26.6
2022-09-24T11:52:00.440Z,26.7
2022-09-24T11:53:00.446Z,26.8
2022-09-24T11:54:00.288Z,27.0
2022-09-24T11:55:00.435Z,27.3
2022-09-24T11:56:00.298Z,27.5
2022-09-24T11:57:00.412Z,27.8
2022-09-24T11:58:00.364Z,28.1
2022-09-24T11:59:00.308Z,28.1
2022-09-24T12:00:00.314Z,28.1
2022-09-24T12:01:00.431Z,28.1
2022-09-24T12:02:00.337Z,28.0
2022-09-24T12:03:00.346Z,28.0
2022-09-24T12:04:00.283Z,28.0
2022-09-24T12:05:00.345Z,28.1
2022-09-24T12:06:00.278Z,28.4
2022-09-24T12:07:00.688Z,28.6
2022-09-24T12:08:00.345Z,28.6
2022-09-24T12:09:00.268Z,28.6
2022-09-24T12:10:00.295Z,28.5
2022-09-24T12:11:00.274Z,28.4
2022-09-24T12:12:00.448Z,28.5
2022-09-24T12:13:00.435Z,28.5
2022-09-24T12:14:00.275Z,28.5
2022-09-24T12:15:00.356Z,28.5
2022-09-24T12:16:00.387Z,28.6
2022-09-24T12:17:00.442Z,28.6
2022-09-24T12:18:00.339Z,28.2
2022-09-24T12:19:00.635Z,28.2
2022-09-24T12:20:00.344Z,28.2
2022-09-24T12:21:00.265Z,28.2
2022-09-24T12:22:00.339Z,28.3
2022-09-24T12:23:00.375Z,28.3
2022-09-24T12:24:03.029Z,28.4
2022-09-24T12:25:00.407Z,28.5
2022-09-24T12:26:00.264Z,28.5
2022-09-24T12:27:00.372Z,28.5
2022-09-24T12:28:00.401Z,28.5
2022-09-24T12:29:00.498Z,28.6
2022-09-24T12:30:00.346Z,28.6
2022-09-24T12:31:00.566Z,28.6
2022-09-24T12:32:00.391Z,28.6
2022-09-24T12:33:00.268Z,28.6
2022-09-24T12:34:00.315Z,28.6
2022-09-24T12:35:00.327Z,28.6
2022-09-24T12:36:00.264Z,28.6
2022-09-24T12:37:00.850Z,28.6
2022-09-24T12:38:00.817Z,28.5
2022-09-24T12:39:00.247Z,28.3
2022-09-24T12:40:00.270Z,28.1
2022-09-24T12:41:00.489Z,27.8
2022-09-24T12:42:00.302Z,27.7
2022-09-24T12:43:00.690Z,27.5
2022-09-24T12:44:00.365Z,27.3
2022-09-24T12:45:00.515Z,27.2
2022-09-24T12:46:00.397Z,27.0
2022-09-24T12:47:00.333Z,26.8
2022-09-24T12:48:00.273Z,26.7
2022-09-24T12:49:00.490Z,26.6
2022-09-24T12:50:00.317Z,26.5
2022-09-24T12:51:00.315Z,26.3
2022-09-24T12:52:00.306Z,26.1
2022-09-24T12:53:00.486Z,26.0
2022-09-24T12:54:00.328Z,26.0
2022-09-24T12:55:00.512Z,26.1
2022-09-24T12:56:00.371Z,26.1
2022-09-24T12:57:00.314Z,26.0
2022-09-24T12:58:00.323Z,26.0
2022-09-24T12:59:00.360Z,26.0
2022-09-24T13:00:00.734Z,26.0
2022-09-24T13:01:00.460Z,25.9
2022-09-24T13:02:00.577Z,25.8
2022-09-24T13:03:00.603Z,25.8
2022-09-24T13:04:00.333Z,25.7
2022-09-24T13:05:00.313Z,25.7
2022-09-24T13:06:00.338Z,25.7
2022-09-24T13:07:00.532Z,25.7
2022-09-24T13:08:00.315Z,25.7
2022-09-24T13:09:00.400Z,25.7
2022-09-24T13:10:00.297Z,25.6
2022-09-24T13:11:00.317Z,25.6
2022-09-24T13:12:00.333Z,25.6
2022-09-24T13:13:00.471Z,25.6
2022-09-24T13:14:00.350Z,25.5
2022-09-24T13:15:00.463Z,25.5
2022-09-24T13:16:00.444Z,25.5
2022-09-24T13:17:00.434Z,25.6
2022-09-24T13:18:00.374Z,25.6